メインページ
METAR-TAF:

METAR-TAF

空港 :

アテネ, ギリシャ

アテネ国際空港

緯度: 37-56N, 経度: 023-56E, 海抜: 94m

現時点の気象観測

当レポートは22分前の09:20(UTC)に作成
変向風 3kt
気温 20°C
湿度 35%
気圧 1021 hPa
視程10km以上
1,500メートル以下は雲なし、積乱雲なし

METAR: LGAV 250920Z VRB03KT CAVOK 20/04 Q1021 NOSIG

時間: 11:42 (09:42 UTC)

予報

当レポートは4時間42分前の05:00(UTC)に作成
予報は25日の 06時(UTC)から 26日の 06時(UTC)まで有効
北西の風 10kt
視程10km以上
高度2500ftの雲はほとんどない
25日の 06時(UTC)から 25日の 08時(UTC)まで徐々に
北東の風 10kt
25日の 16時(UTC)から 25日の 18時(UTC)まで徐々に
西の風 8kt

TAF: LGAV 250500Z 2506/2606 31010KT 9999 FEW025 BECMG 2506/2508 04010KT BECMG 2516/2518 27008KT

4,000以上の空港の気象観測と天気予報(METAR報とTAF報)

利用可能な観測所は地図上に黄色い丸と赤い丸で示す。

丸の上にカーソルを重ねると観測所名を参照できる。

次にクリックすると気象観測と天気予報を参照できる。

マップの切り替え:黒色「×」印の緑ボタンをクリックして拡大、「-」印の緑ボタンをクリックして縮小、緑色の三角印をクリックして隣りの地図に切り替え


METAR-TAF: